createdAt,value
2023-01-10T00:02:16.548Z,5.40
2023-01-10T00:08:16.936Z,5.70
2023-01-10T00:10:43.896Z,4.90
2023-01-10T00:13:24.401Z,5.70
2023-01-10T00:15:55.513Z,5.40
2023-01-10T00:18:22.520Z,6.00
2023-01-10T00:20:49.768Z,5.60
2023-01-10T00:23:17.455Z,6.20
2023-01-10T00:25:44.367Z,6.40
2023-01-10T00:28:20.001Z,5.40
2023-01-10T00:30:49.438Z,6.60
2023-01-10T00:33:19.845Z,6.10
2023-01-10T00:35:48.071Z,5.40
2023-01-10T00:38:15.265Z,6.40
2023-01-10T00:40:42.360Z,5.90
2023-01-10T00:43:28.918Z,5.30
2023-01-10T00:45:57.627Z,5.20
2023-01-10T00:48:24.568Z,6.20
2023-01-10T00:50:51.603Z,6.40
2023-01-10T00:53:18.603Z,5.80
2023-01-10T00:55:45.866Z,5.40
2023-01-10T00:58:16.469Z,5.20
2023-01-10T01:00:47.735Z,6.00
2023-01-10T01:05:42.735Z,5.80
2023-01-10T01:08:10.686Z,6.30
2023-01-10T01:10:37.679Z,7.50
2023-01-10T01:13:09.679Z,6.80
2023-01-10T01:15:36.709Z,6.10
2023-01-10T01:18:04.049Z,6.40
2023-01-10T01:20:31.192Z,7.10
2023-01-10T01:22:58.102Z,7.40
2023-01-10T01:25:25.082Z,6.80
2023-01-10T01:27:52.043Z,7.40
2023-01-10T01:30:18.981Z,5.70
2023-01-10T01:32:45.886Z,5.60
2023-01-10T01:35:14.470Z,5.20
2023-01-10T01:37:42.029Z,6.60
2023-01-10T01:40:19.561Z,5.90
2023-01-10T01:42:46.678Z,6.60
2023-01-10T01:45:22.856Z,8.30
2023-01-10T01:47:55.919Z,6.20
2023-01-10T01:50:34.908Z,7.00
2023-01-10T01:53:03.442Z,6.90
2023-01-10T01:55:31.241Z,5.30
2023-01-10T01:57:58.429Z,5.30
2023-01-10T02:00:25.353Z,5.40
2023-01-10T02:03:02.332Z,6.00
2023-01-10T02:05:30.752Z,5.40
2023-01-10T02:07:58.117Z,5.90
2023-01-10T02:10:33.887Z,5.80
2023-01-10T02:13:04.252Z,8.00
2023-01-10T02:15:31.226Z,7.60
2023-01-10T02:17:58.415Z,6.40
2023-01-10T02:20:26.819Z,5.90
2023-01-10T02:23:14.059Z,6.00
2023-01-10T02:25:59.391Z,6.90
2023-01-10T02:28:59.601Z,7.10
2023-01-10T02:32:04.325Z,6.50
2023-01-10T02:34:46.815Z,5.60
2023-01-10T02:37:17.916Z,5.50
2023-01-10T02:40:06.431Z,6.80
2023-01-10T02:42:51.695Z,6.50
2023-01-10T02:45:24.733Z,4.50
2023-01-10T02:47:51.783Z,4.60
2023-01-10T02:50:37.424Z,6.70
2023-01-10T02:53:17.409Z,5.60
2023-01-10T02:55:53.451Z,6.80
2023-01-10T02:58:48.546Z,6.20
2023-01-10T03:01:24.738Z,7.60
2023-01-10T03:04:01.041Z,6.70
2023-01-10T03:06:34.870Z,7.50
2023-01-10T03:09:19.660Z,7.10
2023-01-10T03:11:49.028Z,7.00
2023-01-10T03:14:19.646Z,6.50
2023-01-10T03:16:51.319Z,6.40
2023-01-10T03:19:21.111Z,6.80
2023-01-10T03:21:48.347Z,6.90
2023-01-10T03:24:21.998Z,6.20
2023-01-10T03:27:03.014Z,6.20
2023-01-10T03:29:35.161Z,6.20
2023-01-10T03:32:05.237Z,6.50
2023-01-10T03:34:32.238Z,7.80
2023-01-10T03:37:03.685Z,6.30
2023-01-10T03:42:06.395Z,6.50
2023-01-10T03:44:43.961Z,7.30
2023-01-10T03:47:30.078Z,6.20
2023-01-10T03:49:59.728Z,7.40
2023-01-10T03:52:26.730Z,6.80
2023-01-10T03:54:54.202Z,6.90
2023-01-10T03:57:24.302Z,6.60
2023-01-10T03:59:53.740Z,7.60
2023-01-10T04:02:20.935Z,7.20
2023-01-10T04:04:47.892Z,7.60
2023-01-10T04:07:14.855Z,7.50
2023-01-10T04:09:41.903Z,8.10
2023-01-10T04:12:09.028Z,7.60
2023-01-10T04:14:36.149Z,7.60
2023-01-10T04:17:03.135Z,6.60
2023-01-10T04:19:30.107Z,6.40
2023-01-10T04:21:57.149Z,6.50
2023-01-10T04:24:24.212Z,6.90
2023-01-10T04:26:51.238Z,7.10
2023-01-10T04:29:18.230Z,6.30
2023-01-10T04:31:45.312Z,7.70
2023-01-10T04:34:12.441Z,6.90
2023-01-10T04:36:39.495Z,6.70
2023-01-10T04:39:06.535Z,7.00
2023-01-10T04:41:33.496Z,6.20
2023-01-10T04:44:00.959Z,6.80
2023-01-10T04:46:28.035Z,6.50
2023-01-10T04:48:55.699Z,7.60
2023-01-10T04:51:22.700Z,7.20
2023-01-10T04:53:49.804Z,7.50
2023-01-10T04:56:18.715Z,7.90
2023-01-10T04:58:45.773Z,7.60
2023-01-10T05:01:23.615Z,8.80
2023-01-10T05:03:52.018Z,8.70
2023-01-10T05:06:19.337Z,8.20
2023-01-10T05:08:46.358Z,8.40
2023-01-10T05:11:13.370Z,8.80
2023-01-10T05:13:40.370Z,8.20
2023-01-10T05:16:07.741Z,8.90
2023-01-10T05:18:34.942Z,8.90
2023-01-10T05:21:09.735Z,8.70
2023-01-10T05:23:37.139Z,8.90
2023-01-10T05:26:10.668Z,8.60
2023-01-10T05:28:38.205Z,8.50
2023-01-10T05:31:23.574Z,9.30
2023-01-10T05:33:51.382Z,10.20
2023-01-10T05:36:18.939Z,9.80
2023-01-10T05:38:46.156Z,10.10
2023-01-10T05:41:13.054Z,10.70
2023-01-10T05:43:40.046Z,8.80
2023-01-10T05:46:07.210Z,10.20
2023-01-10T05:48:34.239Z,9.90
2023-01-10T05:51:01.259Z,10.50
2023-01-10T05:53:28.211Z,10.80
2023-01-10T05:56:02.108Z,8.70
2023-01-10T05:58:29.853Z,10.60
2023-01-10T06:00:57.012Z,11.70
2023-01-10T06:03:25.221Z,11.80
2023-01-10T06:05:55.688Z,9.40
2023-01-10T06:08:23.228Z,10.40
2023-01-10T06:10:50.326Z,10.70
2023-01-10T06:13:17.253Z,10.60
2023-01-10T06:15:44.347Z,10.00
2023-01-10T06:18:12.566Z,10.80
2023-01-10T06:20:43.251Z,10.10
2023-01-10T06:23:30.417Z,10.00
2023-01-10T06:25:57.430Z,10.50
2023-01-10T06:28:24.392Z,8.70
2023-01-10T06:30:51.462Z,11.50
2023-01-10T06:33:18.764Z,10.50
2023-01-10T06:35:47.118Z,12.60
2023-01-10T06:38:14.933Z,11.80
2023-01-10T06:40:41.916Z,17.00
2023-01-10T06:43:08.922Z,13.70
2023-01-10T06:45:35.998Z,13.60
2023-01-10T06:48:03.210Z,10.80
2023-01-10T06:50:30.332Z,12.30
2023-01-10T06:53:02.039Z,12.40
2023-01-10T06:55:29.198Z,13.70
2023-01-10T06:58:00.238Z,13.40
2023-01-10T07:00:27.672Z,12.10
2023-01-10T07:02:56.523Z,12.00
2023-01-10T07:05:23.498Z,11.10
2023-01-10T07:07:50.529Z,12.40
2023-01-10T07:10:17.721Z,15.20
2023-01-10T07:12:44.697Z,16.10
2023-01-10T07:15:11.822Z,14.80
2023-01-10T07:17:38.874Z,13.10
2023-01-10T07:20:06.285Z,14.50
2023-01-10T07:22:33.285Z,12.60
2023-01-10T07:25:00.265Z,14.00
2023-01-10T07:27:27.265Z,11.80
2023-01-10T07:29:54.207Z,11.20
2023-01-10T07:32:21.195Z,13.00
2023-01-10T07:34:48.134Z,13.10
2023-01-10T07:37:15.063Z,12.70
2023-01-10T07:39:42.561Z,12.50
2023-01-10T07:42:10.083Z,13.00
2023-01-10T07:44:37.942Z,10.80
2023-01-10T07:47:04.960Z,13.70
2023-01-10T07:49:31.889Z,12.60
2023-01-10T07:51:58.896Z,14.20
2023-01-10T07:54:25.847Z,12.20
2023-01-10T07:56:52.858Z,13.30
2023-01-10T07:59:19.861Z,13.20
2023-01-10T08:01:47.842Z,11.30
2023-01-10T08:04:14.810Z,14.70
2023-01-10T08:06:41.762Z,12.30
2023-01-10T08:09:09.103Z,12.00
2023-01-10T08:11:36.059Z,12.20
2023-01-10T08:14:03.069Z,13.80
2023-01-10T08:16:30.092Z,15.60
2023-01-10T08:18:57.098Z,10.70
2023-01-10T08:21:24.339Z,13.00
2023-01-10T08:23:51.863Z,14.10
2023-01-10T08:26:19.107Z,13.20
2023-01-10T08:28:46.079Z,12.60
2023-01-10T08:31:13.178Z,13.80
2023-01-10T08:33:40.515Z,12.00
2023-01-10T08:36:15.192Z,11.20
2023-01-10T08:38:42.133Z,12.90
2023-01-10T08:41:09.034Z,13.60
2023-01-10T10:34:51.240Z,9.60
2023-01-10T10:37:26.453Z,10.40
2023-01-10T12:15:29.961Z,9.70
2023-01-10T12:18:01.761Z,9.80
2023-01-10T12:20:30.341Z,10.70
2023-01-10T12:23:13.826Z,10.10
2023-01-10T12:25:42.010Z,9.90
2023-01-10T12:28:19.232Z,10.50
2023-01-10T12:30:50.390Z,8.60
2023-01-10T12:33:21.615Z,9.50
2023-01-10T12:36:19.782Z,10.40
2023-01-10T12:39:16.466Z,13.40
2023-01-10T12:42:03.897Z,13.00
2023-01-10T12:44:41.771Z,11.30
2023-01-10T12:47:23.651Z,10.20
2023-01-10T12:50:21.660Z,10.30
2023-01-10T12:52:52.574Z,10.50
2023-01-10T12:55:20.794Z,11.70
2023-01-10T12:57:51.561Z,14.00
2023-01-10T13:00:48.662Z,12.60
2023-01-10T13:03:20.652Z,11.10
2023-01-10T13:05:49.881Z,9.60
2023-01-10T13:08:19.512Z,8.30
2023-01-10T13:10:47.804Z,11.00
2023-01-10T13:13:26.786Z,10.90
2023-01-10T13:16:24.584Z,9.50
2023-01-10T13:19:10.059Z,9.80
2023-01-10T13:21:41.806Z,10.90
2023-01-10T13:24:15.094Z,9.10
2023-01-10T13:27:02.215Z,11.10
2023-01-10T13:29:49.216Z,8.90
2023-01-10T13:32:20.411Z,11.50
2023-01-10T13:34:47.627Z,12.00
2023-01-10T13:37:21.919Z,12.20
2023-01-10T13:39:56.630Z,12.40
2023-01-10T13:42:54.973Z,11.60
2023-01-10T13:45:23.907Z,10.30
2023-01-10T13:47:57.309Z,8.90
2023-01-10T13:50:24.778Z,8.00
2023-01-10T13:52:55.525Z,8.40
2023-01-10T13:55:34.211Z,9.10
2023-01-10T13:58:16.466Z,9.30
2023-01-10T14:01:03.116Z,9.60
2023-01-10T14:03:45.297Z,9.40
2023-01-10T14:06:27.630Z,8.70
2023-01-10T14:09:02.308Z,8.10
2023-01-10T14:11:45.001Z,8.40
2023-01-10T14:14:39.506Z,10.00
2023-01-10T14:17:20.003Z,7.70
2023-01-10T14:19:48.190Z,9.20
2023-01-10T14:22:35.059Z,9.10
2023-01-10T14:25:04.571Z,8.10
2023-01-10T14:27:51.885Z,8.60
2023-01-10T14:30:26.095Z,8.60
2023-01-10T14:32:56.836Z,7.10
2023-01-10T14:38:03.048Z,5.90
2023-01-10T14:40:35.537Z,8.50
2023-01-10T14:43:03.950Z,10.00
2023-01-10T14:45:35.265Z,13.70
2023-01-10T14:48:28.412Z,12.70
2023-01-10T14:51:09.373Z,7.60
2023-01-10T14:56:26.878Z,8.70
2023-01-10T14:58:53.969Z,8.40
2023-01-10T15:01:28.151Z,10.40
2023-01-10T15:03:55.294Z,9.40
2023-01-10T15:06:24.472Z,9.60
2023-01-10T15:09:00.226Z,10.10
2023-01-10T15:11:27.479Z,8.60
2023-01-10T15:13:59.902Z,9.20
2023-01-10T15:16:28.254Z,8.70
2023-01-10T15:18:56.700Z,10.10
2023-01-10T15:21:24.624Z,8.10
2023-01-10T15:23:51.722Z,7.80
2023-01-10T15:26:28.204Z,9.30
2023-01-10T15:29:12.310Z,9.90
2023-01-10T15:31:39.668Z,10.80
2023-01-10T15:34:17.298Z,8.90
2023-01-10T15:36:57.903Z,9.70
2023-01-10T15:39:35.609Z,9.10
2023-01-10T15:42:06.081Z,7.30
2023-01-10T15:44:46.917Z,8.80
2023-01-10T15:47:40.557Z,8.20
2023-01-10T15:50:33.371Z,7.00
2023-01-10T15:53:02.233Z,7.90
2023-01-10T15:55:35.759Z,7.50
2023-01-10T15:58:02.745Z,7.20
2023-01-10T16:00:30.447Z,10.30
2023-01-10T16:02:57.922Z,9.70
2023-01-10T16:05:24.907Z,16.20
2023-01-10T16:07:51.879Z,15.90
2023-01-10T16:10:24.755Z,10.20
2023-01-10T16:13:10.302Z,13.10
2023-01-10T16:15:42.083Z,16.20
2023-01-10T16:18:09.057Z,11.70
2023-01-10T16:20:37.579Z,14.00
2023-01-10T16:23:05.893Z,14.20
2023-01-10T16:25:34.921Z,9.10
2023-01-10T16:28:01.917Z,9.30
2023-01-10T16:30:31.103Z,7.80
2023-01-10T16:32:59.454Z,6.60
2023-01-10T16:35:26.540Z,7.00
2023-01-10T16:37:57.584Z,7.10
2023-01-10T16:40:37.741Z,7.20
2023-01-10T16:43:21.504Z,5.70
2023-01-10T16:45:53.170Z,7.40
2023-01-10T16:48:20.841Z,6.80
2023-01-10T16:50:48.202Z,7.40
2023-01-10T16:53:16.631Z,8.70
2023-01-10T16:55:53.466Z,6.80
2023-01-10T16:58:20.900Z,8.20
2023-01-10T17:00:49.258Z,9.00
2023-01-10T17:03:21.584Z,6.90
2023-01-10T17:05:48.671Z,9.00
2023-01-10T17:08:20.004Z,9.90
2023-01-10T17:10:48.473Z,7.70
2023-01-10T17:13:18.356Z,7.10
2023-01-10T17:15:45.296Z,6.40
2023-01-10T17:18:12.257Z,8.10
2023-01-10T17:20:39.301Z,6.10
2023-01-10T17:23:06.370Z,7.00
2023-01-10T17:25:33.300Z,5.70
2023-01-10T17:28:00.227Z,5.60
2023-01-10T17:30:27.207Z,5.80
2023-01-10T17:32:54.375Z,6.30
2023-01-10T17:35:22.552Z,6.60
2023-01-10T17:37:49.622Z,7.10
2023-01-10T17:40:16.738Z,6.40
2023-01-10T17:42:43.743Z,5.80
2023-01-10T17:45:10.834Z,6.80
2023-01-10T17:47:37.804Z,6.80
2023-01-10T17:50:05.143Z,7.80
2023-01-10T17:52:32.176Z,7.00
2023-01-10T17:54:59.653Z,6.90
2023-01-10T17:57:26.801Z,8.00
2023-01-10T17:59:53.750Z,5.90
2023-01-10T18:02:21.005Z,6.70
2023-01-10T18:04:48.136Z,6.40
2023-01-10T18:07:15.076Z,5.80
2023-01-10T18:09:42.004Z,7.70
2023-01-10T18:12:09.032Z,6.20
2023-01-10T18:14:38.894Z,7.40
2023-01-10T18:17:08.329Z,7.00
2023-01-10T18:19:35.667Z,6.00
2023-01-10T18:22:23.910Z,7.10
2023-01-10T18:24:52.709Z,6.30
2023-01-10T18:27:20.111Z,5.80
2023-01-10T18:29:47.117Z,7.20
2023-01-10T18:32:14.036Z,6.50
2023-01-10T18:34:40.947Z,7.70
2023-01-10T18:37:08.105Z,6.30
2023-01-10T18:39:35.064Z,6.60
2023-01-10T18:42:02.046Z,7.30
2023-01-10T18:44:29.651Z,8.00
2023-01-10T18:46:59.179Z,8.40
2023-01-10T18:49:26.267Z,8.30
2023-01-10T18:51:53.250Z,7.60
2023-01-10T18:54:20.305Z,9.00
2023-01-10T18:56:47.368Z,10.50
2023-01-10T18:59:15.149Z,10.80
2023-01-10T19:01:42.209Z,8.20
2023-01-10T19:04:11.415Z,9.40
2023-01-10T19:06:38.450Z,9.00
2023-01-10T19:09:05.484Z,8.60
2023-01-10T19:11:32.440Z,9.60
2023-01-10T19:13:59.489Z,6.70
2023-01-10T19:16:29.407Z,7.30
2023-01-10T19:18:57.727Z,8.10
2023-01-10T19:21:25.141Z,6.50
2023-01-10T19:23:55.129Z,5.20
2023-01-10T19:26:22.353Z,6.50
2023-01-10T19:28:49.413Z,7.10
2023-01-10T19:31:17.681Z,7.00
2023-01-10T19:33:46.224Z,8.30
2023-01-10T19:36:13.484Z,7.60
2023-01-10T19:38:40.485Z,6.90
2023-01-10T19:41:07.514Z,7.10
2023-01-10T19:43:34.501Z,7.20
2023-01-10T19:46:08.857Z,5.60
2023-01-10T19:48:38.510Z,8.00
2023-01-10T19:51:10.366Z,8.30
2023-01-10T19:53:38.135Z,7.60
2023-01-10T19:56:07.512Z,10.60
2023-01-10T19:58:35.120Z,9.00
2023-01-10T20:01:15.478Z,6.60
2023-01-10T20:03:42.856Z,6.40
2023-01-10T20:06:10.644Z,7.60
2023-01-10T20:08:37.674Z,6.20
2023-01-10T20:11:05.645Z,6.70
2023-01-10T20:13:38.197Z,8.40
2023-01-10T20:16:05.951Z,7.70
2023-01-10T20:18:32.983Z,5.80
2023-01-10T20:21:06.694Z,7.30
2023-01-10T20:23:34.980Z,7.50
2023-01-10T20:26:15.955Z,6.40
2023-01-10T20:28:43.335Z,7.10
2023-01-10T20:31:12.781Z,7.80
2023-01-10T20:33:39.755Z,7.90
2023-01-10T20:36:08.835Z,7.70
2023-01-10T20:38:36.619Z,6.80
2023-01-10T20:41:11.603Z,7.20
2023-01-10T20:43:38.788Z,7.70
2023-01-10T20:46:13.323Z,7.40
2023-01-10T20:48:40.840Z,7.30
2023-01-10T20:51:08.438Z,7.10
2023-01-10T20:53:38.040Z,7.00
2023-01-10T20:56:06.260Z,7.10
2023-01-10T20:58:35.010Z,6.70
2023-01-10T21:01:02.158Z,6.40
2023-01-10T21:03:29.112Z,6.80
2023-01-10T21:05:57.601Z,7.90
2023-01-10T21:08:24.834Z,7.50
2023-01-10T21:10:52.416Z,7.50
2023-01-10T21:13:19.441Z,7.40
2023-01-10T21:15:47.226Z,9.20
2023-01-10T21:18:15.113Z,7.90
2023-01-10T21:20:46.205Z,7.10
2023-01-10T21:23:15.176Z,6.10
2023-01-10T21:25:42.222Z,6.60
2023-01-10T21:28:10.002Z,8.40
2023-01-10T21:30:37.661Z,7.60
2023-01-10T21:33:05.664Z,6.50
2023-01-10T21:35:33.337Z,7.80
2023-01-10T21:38:00.876Z,8.80
2023-01-10T21:40:27.941Z,6.60
2023-01-10T21:42:55.025Z,6.90
2023-01-10T21:45:22.271Z,7.20
2023-01-10T21:47:49.370Z,8.70
2023-01-10T21:50:16.587Z,6.10
2023-01-10T21:52:43.753Z,7.50
2023-01-10T21:55:11.082Z,7.80
2023-01-10T21:57:39.535Z,8.50
2023-01-10T22:00:07.089Z,8.20
2023-01-10T22:02:38.455Z,7.90
2023-01-10T22:05:05.903Z,8.10
2023-01-10T22:07:32.940Z,7.60
2023-01-10T22:09:59.855Z,7.40
2023-01-10T22:12:27.907Z,8.70
2023-01-10T22:14:54.863Z,7.00
2023-01-10T22:17:21.837Z,6.50
2023-01-10T22:19:48.847Z,9.20
2023-01-10T22:22:17.527Z,10.40
2023-01-10T22:24:47.543Z,7.20
2023-01-10T22:27:15.320Z,6.70
2023-01-10T22:29:42.355Z,6.60
2023-01-10T22:32:09.467Z,7.30
2023-01-10T22:34:36.507Z,6.50
2023-01-10T22:37:03.641Z,6.90
2023-01-10T22:39:30.652Z,6.70
2023-01-10T22:41:57.596Z,7.30
2023-01-10T22:44:26.822Z,6.60
2023-01-10T22:46:54.976Z,7.20
2023-01-10T22:49:22.169Z,9.20
2023-01-10T22:51:49.484Z,6.60
2023-01-10T22:54:16.513Z,7.40
2023-01-10T22:56:44.185Z,7.40
2023-01-10T23:01:55.792Z,6.80
2023-01-10T23:04:22.904Z,6.80
2023-01-10T23:06:50.309Z,6.80
2023-01-10T23:09:17.395Z,7.50
2023-01-10T23:11:44.277Z,7.30
2023-01-10T23:14:11.140Z,6.30
2023-01-10T23:16:38.179Z,7.60
2023-01-10T23:19:05.079Z,7.10
2023-01-10T23:21:32.001Z,7.30
2023-01-10T23:23:59.813Z,7.90
2023-01-10T23:26:26.775Z,7.80
2023-01-10T23:28:53.686Z,6.20
2023-01-10T23:31:24.187Z,7.60
2023-01-10T23:33:51.311Z,6.80
2023-01-10T23:36:18.603Z,7.60
2023-01-10T23:38:45.528Z,6.60
2023-01-10T23:41:12.602Z,7.60
2023-01-10T23:43:39.650Z,7.30
2023-01-10T23:46:06.817Z,6.30
2023-01-10T23:48:33.797Z,6.80
2023-01-10T23:51:00.791Z,7.30
2023-01-10T23:53:27.643Z,6.50
2023-01-10T23:55:54.655Z,7.70
2023-01-10T23:58:21.490Z,8.90
